Terminal Aerodrome Forecast
Issued by NWS Pueblo, CO

Home | Current Version | Previous Version | Text Only | Print | Product List | Glossary On
Versions: 1 2 3 4 5 6 7 8 9 10 11 12 13 14 15 16 17 18 19 20 21 22 23 24 25 26 27 28 29 30 31 32
000
FTUS45 KPUB 232332
TAFALS
TAF
KALS 232332Z 2400/2424 16009KT P6SM VCTS SCT080CB BKN120
     FM240200 13006KT P6SM SCT100 BKN140
     FM240800 VRB06KT P6SM SCT140 SCT200
     FM241600 16008KT P6SM FEW100 SCT200
     FM242000 21012KT P6SM VCTS SCT080CB BKN140=

USA.gov is the U.S. government's official web portal to all federal, state and local government web resources and services.